sensor_id;sensor_type;location;lat;lon;timestamp;pressure;altitude;pressure_sealevel;temperature;humidity
13420;BME280;6781;58.440;15.470;2024-02-04T00:00:08;100338.06;;;2.36;100.00
13420;BME280;6781;58.440;15.470;2024-02-04T00:02:36;100336.25;;;2.38;100.00
13420;BME280;6781;58.440;15.470;2024-02-04T00:05:03;100345.66;;;2.38;100.00
13420;BME280;6781;58.440;15.470;2024-02-04T00:07:30;100355.91;;;2.38;100.00
13420;BME280;6781;58.440;15.470;2024-02-04T00:09:58;100348.00;;;2.42;100.00
13420;BME280;6781;58.440;15.470;2024-02-04T00:12:25;100362.44;;;2.43;100.00
13420;BME280;6781;58.440;15.470;2024-02-04T00:14:53;100343.72;;;2.43;100.00
13420;BME280;6781;58.440;15.470;2024-02-04T00:17:20;100334.16;;;2.46;100.00
13420;BME280;6781;58.440;15.470;2024-02-04T00:19:46;100342.13;;;2.40;100.00
13420;BME280;6781;58.440;15.470;2024-02-04T00:22:13;100341.22;;;2.41;100.00
13420;BME280;6781;58.440;15.470;2024-02-04T00:24:42;100326.63;;;2.43;100.00
13420;BME280;6781;58.440;15.470;2024-02-04T00:27:10;100346.13;;;2.46;100.00
13420;BME280;6781;58.440;15.470;2024-02-04T00:29:37;100341.75;;;2.48;100.00
13420;BME280;6781;58.440;15.470;2024-02-04T00:32:04;100369.38;;;2.41;100.00
13420;BME280;6781;58.440;15.470;2024-02-04T00:34:31;100375.31;;;2.42;100.00
13420;BME280;6781;58.440;15.470;2024-02-04T00:36:58;100371.09;;;2.41;100.00
13420;BME280;6781;58.440;15.470;2024-02-04T00:39:25;100365.84;;;2.44;100.00
13420;BME280;6781;58.440;15.470;2024-02-04T00:41:53;100369.06;;;2.47;100.00
13420;BME280;6781;58.440;15.470;2024-02-04T00:44:22;100366.97;;;2.38;100.00
13420;BME280;6781;58.440;15.470;2024-02-04T00:46:49;100374.03;;;2.33;100.00
13420;BME280;6781;58.440;15.470;2024-02-04T00:49:15;100388.78;;;2.45;100.00
13420;BME280;6781;58.440;15.470;2024-02-04T00:51:41;100378.84;;;2.39;100.00
13420;BME280;6781;58.440;15.470;2024-02-04T00:54:10;100386.97;;;2.47;100.00
13420;BME280;6781;58.440;15.470;2024-02-04T00:56:37;100376.22;;;2.41;100.00
13420;BME280;6781;58.440;15.470;2024-02-04T00:59:04;100362.28;;;2.46;100.00
13420;BME280;6781;58.440;15.470;2024-02-04T01:01:33;100349.66;;;2.43;100.00
13420;BME280;6781;58.440;15.470;2024-02-04T01:03:59;100350.31;;;2.47;100.00
13420;BME280;6781;58.440;15.470;2024-02-04T01:06:26;100344.53;;;2.43;100.00
13420;BME280;6781;58.440;15.470;2024-02-04T01:08:54;100345.97;;;2.49;100.00
13420;BME280;6781;58.440;15.470;2024-02-04T01:11:21;100341.06;;;2.44;100.00
13420;BME280;6781;58.440;15.470;2024-02-04T01:13:47;100346.19;;;2.44;100.00
13420;BME280;6781;58.440;15.470;2024-02-04T01:16:14;100340.78;;;2.50;100.00
13420;BME280;6781;58.440;15.470;2024-02-04T01:18:43;100341.75;;;2.48;100.00
13420;BME280;6781;58.440;15.470;2024-02-04T01:21:09;100337.31;;;2.51;100.00
13420;BME280;6781;58.440;15.470;2024-02-04T01:23:36;100325.25;;;2.53;100.00
13420;BME280;6781;58.440;15.470;2024-02-04T01:26:03;100333.69;;;2.55;100.00
13420;BME280;6781;58.440;15.470;2024-02-04T01:28:30;100332.88;;;2.55;100.00
13420;BME280;6781;58.440;15.470;2024-02-04T01:30:57;100323.44;;;2.55;100.00
13420;BME280;6781;58.440;15.470;2024-02-04T01:33:24;100330.06;;;2.59;100.00
13420;BME280;6781;58.440;15.470;2024-02-04T01:35:52;100323.44;;;2.55;100.00
13420;BME280;6781;58.440;15.470;2024-02-04T01:38:19;100323.44;;;2.55;100.00
13420;BME280;6781;58.440;15.470;2024-02-04T01:40:46;100321.78;;;2.54;100.00
13420;BME280;6781;58.440;15.470;2024-02-04T01:43:16;100323.59;;;2.52;100.00
13420;BME280;6781;58.440;15.470;2024-02-04T01:45:43;100322.78;;;2.52;100.00
13420;BME280;6781;58.440;15.470;2024-02-04T01:48:11;100320.44;;;2.47;100.00
13420;BME280;6781;58.440;15.470;2024-02-04T01:50:40;100312.94;;;2.44;100.00
13420;BME280;6781;58.440;15.470;2024-02-04T01:53:08;100329.19;;;2.43;100.00
13420;BME280;6781;58.440;15.470;2024-02-04T01:55:35;100328.88;;;2.49;100.00
13420;BME280;6781;58.440;15.470;2024-02-04T01:58:03;100329.94;;;2.45;100.00
13420;BME280;6781;58.440;15.470;2024-02-04T02:00:30;100331.00;;;2.41;100.00
13420;BME280;6781;58.440;15.470;2024-02-04T02:02:57;100338.59;;;2.43;100.00
13420;BME280;6781;58.440;15.470;2024-02-04T02:05:25;100349.81;;;2.40;100.00
13420;BME280;6781;58.440;15.470;2024-02-04T02:07:52;100346.50;;;2.38;100.00
13420;BME280;6781;58.440;15.470;2024-02-04T02:10:22;100333.91;;;2.34;100.00
13420;BME280;6781;58.440;15.470;2024-02-04T02:12:50;100339.03;;;2.34;100.00
13420;BME280;6781;58.440;15.470;2024-02-04T02:15:20;100342.66;;;2.29;100.00
13420;BME280;6781;58.440;15.470;2024-02-04T02:17:50;100341.81;;;2.29;100.00
13420;BME280;6781;58.440;15.470;2024-02-04T02:20:19;100329.19;;;2.26;100.00
13420;BME280;6781;58.440;15.470;2024-02-04T02:22:49;100335.19;;;2.25;100.00
13420;BME280;6781;58.440;15.470;2024-02-04T02:25:18;100333.41;;;2.27;100.00
13420;BME280;6781;58.440;15.470;2024-02-04T02:27:46;100320.00;;;2.22;100.00
13420;BME280;6781;58.440;15.470;2024-02-04T02:30:14;100296.91;;;2.23;100.00
13420;BME280;6781;58.440;15.470;2024-02-04T02:32:42;100290.38;;;2.18;100.00
13420;BME280;6781;58.440;15.470;2024-02-04T02:35:09;100297.22;;;2.17;100.00
13420;BME280;6781;58.440;15.470;2024-02-04T02:37:36;100275.78;;;2.20;100.00
13420;BME280;6781;58.440;15.470;2024-02-04T02:40:07;100274.88;;;2.21;100.00
13420;BME280;6781;58.440;15.470;2024-02-04T02:42:37;100237.47;;;2.18;100.00
13420;BME280;6781;58.440;15.470;2024-02-04T02:45:05;100227.00;;;2.23;100.00
13420;BME280;6781;58.440;15.470;2024-02-04T02:47:33;100207.63;;;2.19;100.00
13420;BME280;6781;58.440;15.470;2024-02-04T02:50:00;100209.25;;;2.20;100.00
13420;BME280;6781;58.440;15.470;2024-02-04T02:52:27;100185.50;;;2.18;100.00
13420;BME280;6781;58.440;15.470;2024-02-04T02:54:54;100188.22;;;2.15;100.00
13420;BME280;6781;58.440;15.470;2024-02-04T02:57:20;100177.31;;;2.11;100.00
13420;BME280;6781;58.440;15.470;2024-02-04T02:59:48;100190.03;;;2.13;100.00
13420;BME280;6781;58.440;15.470;2024-02-04T03:04:50;100193.72;;;2.07;100.00
13420;BME280;6781;58.440;15.470;2024-02-04T03:07:17;100192.06;;;2.06;100.00
13420;BME280;6781;58.440;15.470;2024-02-04T03:09:44;100206.25;;;2.12;100.00
13420;BME280;6781;58.440;15.470;2024-02-04T03:12:11;100199.81;;;2.05;100.00
13420;BME280;6781;58.440;15.470;2024-02-04T03:14:38;100221.91;;;2.06;100.00
13420;BME280;6781;58.440;15.470;2024-02-04T03:17:06;100225.38;;;2.05;100.00
13420;BME280;6781;58.440;15.470;2024-02-04T03:19:33;100230.19;;;2.11;100.00
13420;BME280;6781;58.440;15.470;2024-02-04T03:22:00;100237.94;;;2.09;100.00
13420;BME280;6781;58.440;15.470;2024-02-04T03:24:28;100254.25;;;2.07;100.00
13420;BME280;6781;58.440;15.470;2024-02-04T03:26:54;100264.63;;;2.04;100.00
13420;BME280;6781;58.440;15.470;2024-02-04T03:29:21;100270.72;;;2.01;100.00
13420;BME280;6781;58.440;15.470;2024-02-04T03:31:48;100289.31;;;2.05;100.00
13420;BME280;6781;58.440;15.470;2024-02-04T03:34:16;100293.66;;;2.03;100.00
13420;BME280;6781;58.440;15.470;2024-02-04T03:36:43;100303.13;;;2.01;100.00
13420;BME280;6781;58.440;15.470;2024-02-04T03:39:10;100310.88;;;1.99;100.00
13420;BME280;6781;58.440;15.470;2024-02-04T03:41:37;100322.69;;;2.02;100.00
13420;BME280;6781;58.440;15.470;2024-02-04T03:44:04;100321.88;;;2.01;100.00
13420;BME280;6781;58.440;15.470;2024-02-04T03:46:30;100355.03;;;2.03;100.00
13420;BME280;6781;58.440;15.470;2024-02-04T03:48:57;100329.63;;;2.00;100.00
13420;BME280;6781;58.440;15.470;2024-02-04T03:51:26;100339.84;;;2.00;100.00
13420;BME280;6781;58.440;15.470;2024-02-04T03:53:52;100349.03;;;2.04;100.00
13420;BME280;6781;58.440;15.470;2024-02-04T03:56:19;100351.88;;;1.98;100.00
13420;BME280;6781;58.440;15.470;2024-02-04T03:58:46;100356.97;;;1.98;100.00
13420;BME280;6781;58.440;15.470;2024-02-04T04:01:13;100370.66;;;1.96;100.00
13420;BME280;6781;58.440;15.470;2024-02-04T04:03:40;100382.56;;;1.98;100.00
13420;BME280;6781;58.440;15.470;2024-02-04T04:06:07;100382.69;;;1.94;100.00
13420;BME280;6781;58.440;15.470;2024-02-04T04:08:35;100399.69;;;1.95;100.00
13420;BME280;6781;58.440;15.470;2024-02-04T04:11:03;100401.34;;;1.96;100.00
13420;BME280;6781;58.440;15.470;2024-02-04T04:13:33;100401.50;;;1.93;100.00
13420;BME280;6781;58.440;15.470;2024-02-04T04:16:00;100408.25;;;1.94;100.00
13420;BME280;6781;58.440;15.470;2024-02-04T04:18:27;100410.75;;;1.96;100.00
13420;BME280;6781;58.440;15.470;2024-02-04T04:20:54;100417.53;;;1.97;100.00
13420;BME280;6781;58.440;15.470;2024-02-04T04:23:20;100416.53;;;2.00;100.00
13420;BME280;6781;58.440;15.470;2024-02-04T04:25:49;100414.88;;;1.99;100.00
13420;BME280;6781;58.440;15.470;2024-02-04T04:28:15;100424.97;;;2.02;100.00
13420;BME280;6781;58.440;15.470;2024-02-04T04:30:42;100424.00;;;2.04;100.00
13420;BME280;6781;58.440;15.470;2024-02-04T04:33:09;100424.84;;;2.05;100.00
13420;BME280;6781;58.440;15.470;2024-02-04T04:35:37;100439.06;;;2.10;100.00
13420;BME280;6781;58.440;15.470;2024-02-04T04:38:04;100424.56;;;2.11;100.00
13420;BME280;6781;58.440;15.470;2024-02-04T04:40:31;100443.91;;;2.16;100.00
13420;BME280;6781;58.440;15.470;2024-02-04T04:42:59;100444.88;;;2.14;100.00
13420;BME280;6781;58.440;15.470;2024-02-04T04:45:26;100443.06;;;2.16;100.00
13420;BME280;6781;58.440;15.470;2024-02-04T04:47:53;100443.22;;;2.13;100.00
13420;BME280;6781;58.440;15.470;2024-02-04T04:50:19;100442.09;;;2.18;100.00
13420;BME280;6781;58.440;15.470;2024-02-04T04:52:46;100440.28;;;2.20;100.00
13420;BME280;6781;58.440;15.470;2024-02-04T04:55:13;100442.78;;;2.22;100.00
13420;BME280;6781;58.440;15.470;2024-02-04T04:57:40;100435.94;;;2.22;100.00
13420;BME280;6781;58.440;15.470;2024-02-04T05:00:09;100425.78;;;2.21;100.00
13420;BME280;6781;58.440;15.470;2024-02-04T05:02:39;100433.22;;;2.25;100.00
13420;BME280;6781;58.440;15.470;2024-02-04T05:05:06;100421.41;;;2.23;100.00
13420;BME280;6781;58.440;15.470;2024-02-04T05:07:33;100424.06;;;2.21;100.00
13420;BME280;6781;58.440;15.470;2024-02-04T05:10:00;100429.09;;;2.23;100.00
13420;BME280;6781;58.440;15.470;2024-02-04T05:12:26;100427.44;;;2.22;100.00
13420;BME280;6781;58.440;15.470;2024-02-04T05:14:53;100427.50;;;2.20;100.00
13420;BME280;6781;58.440;15.470;2024-02-04T05:17:21;100432.69;;;2.19;100.00
13420;BME280;6781;58.440;15.470;2024-02-04T05:19:48;100436.16;;;2.18;100.00
13420;BME280;6781;58.440;15.470;2024-02-04T05:22:15;100439.47;;;2.20;100.00
13420;BME280;6781;58.440;15.470;2024-02-04T05:24:42;100435.31;;;2.17;100.00
13420;BME280;6781;58.440;15.470;2024-02-04T05:27:09;100433.53;;;2.19;100.00
13420;BME280;6781;58.440;15.470;2024-02-04T05:29:35;100442.78;;;2.22;100.00
13420;BME280;6781;58.440;15.470;2024-02-04T05:32:02;100455.56;;;2.22;100.00
13420;BME280;6781;58.440;15.470;2024-02-04T05:34:31;100453.91;;;2.21;100.00
13420;BME280;6781;58.440;15.470;2024-02-04T05:36:59;100439.47;;;2.20;100.00
13420;BME280;6781;58.440;15.470;2024-02-04T05:39:26;100442.94;;;2.19;100.00
13420;BME280;6781;58.440;15.470;2024-02-04T05:41:53;100437.81;;;2.19;100.00
13420;BME280;6781;58.440;15.470;2024-02-04T05:44:20;100450.66;;;2.17;100.00
13420;BME280;6781;58.440;15.470;2024-02-04T05:46:47;100454.00;;;2.19;100.00
13420;BME280;6781;58.440;15.470;2024-02-04T05:49:13;100458.28;;;2.19;100.00
13420;BME280;6781;58.440;15.470;2024-02-04T05:51:43;100467.59;;;2.20;100.00
13420;BME280;6781;58.440;15.470;2024-02-04T05:54:10;100467.53;;;2.21;100.00
13420;BME280;6781;58.440;15.470;2024-02-04T05:56:37;100477.69;;;2.23;100.00
13420;BME280;6781;58.440;15.470;2024-02-04T05:59:04;100485.38;;;2.23;100.00
13420;BME280;6781;58.440;15.470;2024-02-04T06:01:31;100490.34;;;2.26;100.00
13420;BME280;6781;58.440;15.470;2024-02-04T06:03:58;100482.75;;;2.24;100.00
13420;BME280;6781;58.440;15.470;2024-02-04T06:06:25;100487.84;;;2.24;100.00
13420;BME280;6781;58.440;15.470;2024-02-04T06:08:53;100494.50;;;2.28;100.00
13420;BME280;6781;58.440;15.470;2024-02-04T06:11:20;100494.50;;;2.28;100.00
13420;BME280;6781;58.440;15.470;2024-02-04T06:13:47;100489.31;;;2.30;100.00
13420;BME280;6781;58.440;15.470;2024-02-04T06:16:14;100491.72;;;2.33;100.00
13420;BME280;6781;58.440;15.470;2024-02-04T06:18:40;100491.84;;;2.30;100.00
13420;BME280;6781;58.440;15.470;2024-02-04T06:21:07;100488.41;;;2.31;100.00
13420;BME280;6781;58.440;15.470;2024-02-04T06:23:34;100490.88;;;2.33;100.00
13420;BME280;6781;58.440;15.470;2024-02-04T06:26:03;100499.41;;;2.33;100.00
13420;BME280;6781;58.440;15.470;2024-02-04T06:28:30;100491.72;;;2.33;100.00
13420;BME280;6781;58.440;15.470;2024-02-04T06:30:57;100492.63;;;2.32;100.00
13420;BME280;6781;58.440;15.470;2024-02-04T06:33:24;100486.59;;;2.33;100.00
13420;BME280;6781;58.440;15.470;2024-02-04T06:35:50;100500.16;;;2.35;100.00
13420;BME280;6781;58.440;15.470;2024-02-04T06:38:17;100495.03;;;2.35;100.00
13420;BME280;6781;58.440;15.470;2024-02-04T06:40:44;100498.34;;;2.37;100.00
13420;BME280;6781;58.440;15.470;2024-02-04T06:43:14;100498.34;;;2.37;100.00
13420;BME280;6781;58.440;15.470;2024-02-04T06:45:41;100492.31;;;2.38;100.00
13420;BME280;6781;58.440;15.470;2024-02-04T06:48:08;100478.63;;;2.39;100.00
13420;BME280;6781;58.440;15.470;2024-02-04T06:50:35;100477.72;;;2.40;100.00
13420;BME280;6781;58.440;15.470;2024-02-04T06:53:03;100472.63;;;2.40;100.00
13420;BME280;6781;58.440;15.470;2024-02-04T06:55:30;100468.25;;;2.42;100.00
13420;BME280;6781;58.440;15.470;2024-02-04T06:57:56;100464.03;;;2.41;100.00
13420;BME280;6781;58.440;15.470;2024-02-04T07:00:25;100463.28;;;2.39;100.00
13420;BME280;6781;58.440;15.470;2024-02-04T07:02:52;100455.75;;;2.36;100.00
13420;BME280;6781;58.440;15.470;2024-02-04T07:05:19;100443.09;;;2.33;100.00
13420;BME280;6781;58.440;15.470;2024-02-04T07:07:47;100444.00;;;2.32;100.00
13420;BME280;6781;58.440;15.470;2024-02-04T07:10:14;100438.06;;;2.32;100.00
13420;BME280;6781;58.440;15.470;2024-02-04T07:12:40;100440.69;;;2.30;100.00
13420;BME280;6781;58.440;15.470;2024-02-04T07:15:07;100430.47;;;2.30;100.00
13420;BME280;6781;58.440;15.470;2024-02-04T07:17:36;100423.69;;;2.29;100.00
13420;BME280;6781;58.440;15.470;2024-02-04T07:20:03;100411.66;;;2.31;100.00
13420;BME280;6781;58.440;15.470;2024-02-04T07:22:30;100416.75;;;2.31;100.00
13420;BME280;6781;58.440;15.470;2024-02-04T07:24:57;100430.25;;;2.35;100.00
13420;BME280;6781;58.440;15.470;2024-02-04T07:27:24;100425.94;;;2.35;100.00
13420;BME280;6781;58.440;15.470;2024-02-04T07:29:51;100425.06;;;2.36;100.00
13420;BME280;6781;58.440;15.470;2024-02-04T07:32:20;100430.03;;;2.39;100.00
13420;BME280;6781;58.440;15.470;2024-02-04T07:34:48;100420.53;;;2.41;100.00
13420;BME280;6781;58.440;15.470;2024-02-04T07:37:15;100410.38;;;2.40;100.00
13420;BME280;6781;58.440;15.470;2024-02-04T07:39:43;100403.38;;;2.43;100.00
13420;BME280;6781;58.440;15.470;2024-02-04T07:42:10;100395.84;;;2.40;100.00
13420;BME280;6781;58.440;15.470;2024-02-04T07:44:37;100400.16;;;2.40;100.00
13420;BME280;6781;58.440;15.470;2024-02-04T07:47:03;100386.53;;;2.39;100.00
13420;BME280;6781;58.440;15.470;2024-02-04T07:49:31;100378.16;;;2.36;100.00
13420;BME280;6781;58.440;15.470;2024-02-04T07:51:59;100378.09;;;2.37;100.00
13420;BME280;6781;58.440;15.470;2024-02-04T07:54:26;100394.06;;;2.42;100.00
13420;BME280;6781;58.440;15.470;2024-02-04T07:56:52;100386.97;;;2.47;100.00
13420;BME280;6781;58.440;15.470;2024-02-04T07:59:19;100397.06;;;2.50;100.00
13420;BME280;6781;58.440;15.470;2024-02-04T08:01:46;100393.44;;;2.54;100.00
13420;BME280;6781;58.440;15.470;2024-02-04T08:04:13;100384.88;;;2.55;100.00
13420;BME280;6781;58.440;15.470;2024-02-04T08:06:40;100372.91;;;2.56;100.00
13420;BME280;6781;58.440;15.470;2024-02-04T08:09:09;100377.13;;;2.57;100.00
13420;BME280;6781;58.440;15.470;2024-02-04T08:11:37;100381.25;;;2.59;100.00
13420;BME280;6781;58.440;15.470;2024-02-04T08:14:03;100361.47;;;2.63;100.00
13420;BME280;6781;58.440;15.470;2024-02-04T08:16:30;100357.03;;;2.67;100.00
13420;BME280;6781;58.440;15.470;2024-02-04T08:18:57;100366.28;;;2.69;100.00
13420;BME280;6781;58.440;15.470;2024-02-04T08:21:24;100352.50;;;2.72;100.00
13420;BME280;6781;58.440;15.470;2024-02-04T08:23:51;100350.75;;;2.72;100.00
13420;BME280;6781;58.440;15.470;2024-02-04T08:26:19;100333.59;;;2.74;100.00
13420;BME280;6781;58.440;15.470;2024-02-04T08:28:47;100326.00;;;2.73;100.00
13420;BME280;6781;58.440;15.470;2024-02-04T08:31:14;100318.16;;;2.76;100.00
13420;BME280;6781;58.440;15.470;2024-02-04T08:33:41;100319.81;;;2.77;100.00
13420;BME280;6781;58.440;15.470;2024-02-04T08:36:08;100311.97;;;2.80;100.00
13420;BME280;6781;58.440;15.470;2024-02-04T08:38:35;100319.72;;;2.78;100.00
13420;BME280;6781;58.440;15.470;2024-02-04T08:41:02;100345.03;;;2.84;100.00
13420;BME280;6781;58.440;15.470;2024-02-04T08:43:31;100346.84;;;2.82;100.00
13420;BME280;6781;58.440;15.470;2024-02-04T08:45:58;100348.63;;;2.80;100.00
13420;BME280;6781;58.440;15.470;2024-02-04T08:48:25;100352.78;;;2.83;100.00
13420;BME280;6781;58.440;15.470;2024-02-04T08:50:52;100366.50;;;2.82;100.00
13420;BME280;6781;58.440;15.470;2024-02-04T08:53:20;100369.03;;;2.82;100.00
13420;BME280;6781;58.440;15.470;2024-02-04T08:55:48;100378.53;;;2.80;100.00
13420;BME280;6781;58.440;15.470;2024-02-04T08:58:15;100392.56;;;2.73;100.00
13420;BME280;6781;58.440;15.470;2024-02-04T09:00:55;100410.03;;;2.65;100.00
13420;BME280;6781;58.440;15.470;2024-02-04T09:03:22;100438.25;;;2.63;100.00
13420;BME280;6781;58.440;15.470;2024-02-04T09:05:48;100457.16;;;2.60;100.00
13420;BME280;6781;58.440;15.470;2024-02-04T09:08:15;100477.31;;;2.67;100.00
13420;BME280;6781;58.440;15.470;2024-02-04T09:10:42;100500.22;;;2.70;100.00
13420;BME280;6781;58.440;15.470;2024-02-04T09:13:09;100497.72;;;2.68;100.00
13420;BME280;6781;58.440;15.470;2024-02-04T09:15:36;100517.25;;;2.71;100.00
13420;BME280;6781;58.440;15.470;2024-02-04T09:21:00;100537.56;;;2.74;100.00
13420;BME280;6781;58.440;15.470;2024-02-04T09:24:49;100563.03;;;2.77;100.00
13420;BME280;6781;58.440;15.470;2024-02-04T09:29:44;100613.41;;;2.76;100.00
13420;BME280;6781;58.440;15.470;2024-02-04T09:44:31;100652.69;;;2.94;100.00
13420;BME280;6781;58.440;15.470;2024-02-04T09:47:12;100675.69;;;2.96;100.00
13420;BME280;6781;58.440;15.470;2024-02-04T09:49:39;100691.88;;;2.96;100.00
13420;BME280;6781;58.440;15.470;2024-02-04T09:52:07;100696.16;;;2.96;100.00
13420;BME280;6781;58.440;15.470;2024-02-04T09:54:37;100713.00;;;3.01;100.00
13420;BME280;6781;58.440;15.470;2024-02-04T09:57:08;100715.41;;;3.04;100.00
13420;BME280;6781;58.440;15.470;2024-02-04T09:59:35;100719.63;;;3.05;100.00
13420;BME280;6781;58.440;15.470;2024-02-04T10:02:01;100729.47;;;3.14;100.00
13420;BME280;6781;58.440;15.470;2024-02-04T10:04:30;100727.44;;;3.21;100.00
13420;BME280;6781;58.440;15.470;2024-02-04T10:06:56;100747.03;;;3.22;100.00
13420;BME280;6781;58.440;15.470;2024-02-04T10:09:24;100750.28;;;3.25;100.00
13420;BME280;6781;58.440;15.470;2024-02-04T10:11:53;100746.41;;;3.36;100.00
13420;BME280;6781;58.440;15.470;2024-02-04T10:14:22;100750.97;;;3.29;100.00
13420;BME280;6781;58.440;15.470;2024-02-04T10:16:51;100745.44;;;3.38;100.00
13420;BME280;6781;58.440;15.470;2024-02-04T10:19:19;100750.03;;;3.49;100.00
13420;BME280;6781;58.440;15.470;2024-02-04T10:21:47;100762.69;;;3.52;100.00
13420;BME280;6781;58.440;15.470;2024-02-04T10:24:24;100762.69;;;3.52;100.00
13420;BME280;6781;58.440;15.470;2024-02-04T10:26:50;100769.78;;;3.47;100.00
13420;BME280;6781;58.440;15.470;2024-02-04T10:29:19;100750.28;;;3.44;100.00
13420;BME280;6781;58.440;15.470;2024-02-04T10:31:46;100751.41;;;3.39;100.00
13420;BME280;6781;58.440;15.470;2024-02-04T10:34:13;100751.09;;;3.45;100.00
13420;BME280;6781;58.440;15.470;2024-02-04T10:36:40;100743.34;;;3.46;100.00
13420;BME280;6781;58.440;15.470;2024-02-04T10:39:07;100750.94;;;3.48;100.00
13420;BME280;6781;58.440;15.470;2024-02-04T10:41:34;100748.97;;;3.53;100.00
13420;BME280;6781;58.440;15.470;2024-02-04T10:44:05;100757.13;;;3.61;100.00
13420;BME280;6781;58.440;15.470;2024-02-04T10:46:34;100760.47;;;3.63;100.00
13420;BME280;6781;58.440;15.470;2024-02-04T10:49:03;100757.00;;;3.64;100.00
13420;BME280;6781;58.440;15.470;2024-02-04T10:51:31;100745.22;;;3.60;100.00
13420;BME280;6781;58.440;15.470;2024-02-04T10:54:00;100768.91;;;3.65;100.00
13420;BME280;6781;58.440;15.470;2024-02-04T10:56:29;100750.88;;;3.67;100.00
13420;BME280;6781;58.440;15.470;2024-02-04T10:58:57;100744.50;;;3.75;100.00
13420;BME280;6781;58.440;15.470;2024-02-04T11:01:25;100737.41;;;3.80;100.00
13420;BME280;6781;58.440;15.470;2024-02-04T11:03:54;100747.22;;;3.89;100.00
13420;BME280;6781;58.440;15.470;2024-02-04T11:06:21;100733.50;;;3.90;100.00
13420;BME280;6781;58.440;15.470;2024-02-04T11:08:49;100724.28;;;3.86;100.00
13420;BME280;6781;58.440;15.470;2024-02-04T11:11:16;100703.31;;;3.78;100.00
13420;BME280;6781;58.440;15.470;2024-02-04T11:13:43;100676.31;;;3.71;100.00
13420;BME280;6781;58.440;15.470;2024-02-04T11:16:13;100676.00;;;3.77;100.00
13420;BME280;6781;58.440;15.470;2024-02-04T11:18:46;100664.84;;;3.78;100.00
13420;BME280;6781;58.440;15.470;2024-02-04T11:21:33;100641.75;;;3.78;100.00
13420;BME280;6781;58.440;15.470;2024-02-04T11:24:06;100615.34;;;3.76;100.00
13420;BME280;6781;58.440;15.470;2024-02-04T11:26:36;100606.16;;;3.72;100.00
13420;BME280;6781;58.440;15.470;2024-02-04T11:29:06;100617.78;;;3.79;100.00
13420;BME280;6781;58.440;15.470;2024-02-04T11:31:33;100614.97;;;3.84;100.00
13420;BME280;6781;58.440;15.470;2024-02-04T11:34:00;100601.75;;;3.91;100.00
13420;BME280;6781;58.440;15.470;2024-02-04T11:36:27;100586.38;;;3.91;100.00
13420;BME280;6781;58.440;15.470;2024-02-04T11:38:55;100574.13;;;3.97;100.00
13420;BME280;6781;58.440;15.470;2024-02-04T11:41:22;100560.41;;;3.98;100.00
13420;BME280;6781;58.440;15.470;2024-02-04T11:43:51;100544.09;;;3.99;100.00
13420;BME280;6781;58.440;15.470;2024-02-04T11:46:19;100536.06;;;4.05;100.00
13420;BME280;6781;58.440;15.470;2024-02-04T11:48:51;100524.75;;;4.09;100.00
13420;BME280;6781;58.440;15.470;2024-02-04T11:51:18;100487.41;;;4.03;100.00
13420;BME280;6781;58.440;15.470;2024-02-04T11:53:48;100481.13;;;4.09;100.00
13420;BME280;6781;58.440;15.470;2024-02-04T11:56:19;100459.03;;;4.06;100.00
13420;BME280;6781;58.440;15.470;2024-02-04T11:58:46;100459.28;;;4.17;100.00
13420;BME280;6781;58.440;15.470;2024-02-04T12:01:13;100434.09;;;4.08;100.00
13420;BME280;6781;58.440;15.470;2024-02-04T12:03:41;100405.38;;;4.17;100.00
13420;BME280;6781;58.440;15.470;2024-02-04T12:06:08;100389.38;;;4.28;100.00
13420;BME280;6781;58.440;15.470;2024-02-04T12:08:35;100380.59;;;4.32;100.00
13420;BME280;6781;58.440;15.470;2024-02-04T12:11:02;100360.53;;;4.39;100.00
13420;BME280;6781;58.440;15.470;2024-02-04T12:13:31;100359.72;;;4.38;100.00
13420;BME280;6781;58.440;15.470;2024-02-04T12:16:03;100339.00;;;4.41;100.00
13420;BME280;6781;58.440;15.470;2024-02-04T12:18:30;100319.94;;;4.45;100.00
13420;BME280;6781;58.440;15.470;2024-02-04T12:20:57;100280.69;;;4.43;100.00
13420;BME280;6781;58.440;15.470;2024-02-04T12:23:24;100255.19;;;4.40;100.00
13420;BME280;6781;58.440;15.470;2024-02-04T12:25:51;100243.00;;;4.44;100.00
13420;BME280;6781;58.440;15.470;2024-02-04T12:28:18;100229.25;;;4.45;100.00
13420;BME280;6781;58.440;15.470;2024-02-04T12:30:53;100214.13;;;4.40;100.00
13420;BME280;6781;58.440;15.470;2024-02-04T12:33:21;100182.78;;;4.35;100.00
13420;BME280;6781;58.440;15.470;2024-02-04T12:35:51;100170.31;;;4.29;100.00
13420;BME280;6781;58.440;15.470;2024-02-04T12:38:21;100156.47;;;4.32;100.00
13420;BME280;6781;58.440;15.470;2024-02-04T12:40:48;100138.97;;;4.38;100.00
13420;BME280;6781;58.440;15.470;2024-02-04T12:43:16;100130.53;;;4.36;100.00
13420;BME280;6781;58.440;15.470;2024-02-04T12:45:42;100102.38;;;4.35;100.00
13420;BME280;6781;58.440;15.470;2024-02-04T12:48:13;100082.50;;;4.38;100.00
13420;BME280;6781;58.440;15.470;2024-02-04T12:50:41;100068.94;;;4.36;100.00
13420;BME280;6781;58.440;15.470;2024-02-04T12:53:08;100046.56;;;4.38;100.00
13420;BME280;6781;58.440;15.470;2024-02-04T12:55:37;100021.81;;;4.37;100.00
13420;BME280;6781;58.440;15.470;2024-02-04T12:58:04;100021.81;;;4.37;100.00
13420;BME280;6781;58.440;15.470;2024-02-04T13:00:31;100001.38;;;4.36;100.00
13420;BME280;6781;58.440;15.470;2024-02-04T13:02:58;99985.53;;;4.29;100.00
13420;BME280;6781;58.440;15.470;2024-02-04T13:05:27;99992.13;;;4.33;100.00
13420;BME280;6781;58.440;15.470;2024-02-04T13:07:56;99980.00;;;4.35;100.00
13420;BME280;6781;58.440;15.470;2024-02-04T13:10:23;99977.97;;;4.40;100.00
13420;BME280;6781;58.440;15.470;2024-02-04T13:13:00;99969.66;;;4.37;100.00